This is the latest recevied weather packets stored in our database for station/object DL1MMS-10. If no packets are shown the sender has not sent any weather packets the latest 1 day(s).
| Time | Temp. | Humidity | Pressure | Rain* | Wind** | Luminosity | Snow |
|---|---|---|---|---|---|---|---|
| 1778095781 | 8.33° C | 79% | 1010.9 hPa | 0 mm | - | - | - |
| 1778094880 | 8.89° C | 79% | 1010.9 hPa | 0 mm | - | - | - |
| 1778093979 | 8.89° C | 78% | 1010.6 hPa | 0 mm | - | - | - |
| 1778093679 | 8.89° C | 78% | 1010.6 hPa | 0 mm | - | - | - |
| 1778092778 | 9.44° C | 78% | 1010.4 hPa | 0 mm | - | - | - |
| 1778091577 | 10° C | 78% | 1010.2 hPa | 0 mm | - | - | - |
| 1778090676 | 9.44° C | 78% | 1010.4 hPa | 0 mm | - | - | - |
| 1778090376 | 9.44° C | 78% | 1010.3 hPa | 0 mm | - | - | - |
| 1778089475 | 9.44° C | 78% | 1009.9 hPa | 0 mm | - | - | - |
| 1778087673 | 10° C | 75% | 1009.7 hPa | 0 mm | - | - | - |
| 1778087373 | 10° C | 74% | 1009.7 hPa | 0 mm | - | - | - |
| 1778086472 | 10° C | 75% | 1009.3 hPa | 0 mm | - | - | - |
| 1778085271 | 9.44° C | 76% | 1009.1 hPa | 0 mm | - | - | - |
| 1778084370 | 10.56° C | 73% | 1009.2 hPa | 0 mm | - | - | - |
| 1778084070 | 10.56° C | 72% | 1009.2 hPa | 0 mm | - | - | - |
| 1778082268 | 12.78° C | 62% | 1008.5 hPa | 0 mm | - | - | - |
| 1778081968 | 14.44° C | 59% | 1008.5 hPa | 0 mm | - | - | - |
| 1778079866 | 23.89° C | 46% | 1007.3 hPa | 0 mm | - | - | - |
| 1778078064 | 18.89° C | 62% | 1007.5 hPa | 0 mm | - | - | - |
| 1778077764 | 18.89° C | 62% | 1007.5 hPa | 0 mm | - | - | - |
| 1778076863 | 18.89° C | 62% | 1007.3 hPa | 0 mm | - | - | - |
| 1778075962 | 17.22° C | 73% | 1007.3 hPa | 0 mm | - | - | - |
| 1778075662 | 16.67° C | 72% | 1007.4 hPa | 0 mm | - | - | - |
| 1778074761 | 12.78° C | 82% | 1007.5 hPa | 0 mm | - | - | - |
| 1778073560 | 11.11° C | 76% | 1008.1 hPa | 0 mm | - | - | - |
* Rain latest hour (hover to see other rain measurements)
** Current wind speed in m/s (hover to see current wind gust speed)